Time;durP1;ratioP1;P1;durP2;ratioP2;P2;SDS_P1;SDS_P2;PMS_P1;PMS_P2;Temp;Humidity;BMP_temperature;BMP_pressure;BME280_temperature;BME280_humidity;BME280_pressure;Samples;Min_cycle;Max_cycle;Signal;HPM_P1;HPM_P2
2022/07/06 00:01:37;;;;;;;3.53;1.70;;;;;;;;;;5025724;28;20207;-67
2022/07/06 00:04:05;;;;;;;1.70;1.60;;;;;;;;;;5024598;28;20203;-67
2022/07/06 00:06:33;;;;;;;3.10;1.50;;;;;;;;;;5024367;28;20222;-67
2022/07/06 00:09:00;;;;;;;2.22;2.03;;;;;;;;;;5015494;28;20230;-67
2022/07/06 00:11:28;;;;;;;2.00;1.90;;;;;;;;;;5022742;28;20699;-67
2022/07/06 00:13:59;;;;;;;1.73;1.63;;;;;;;;;;5013838;28;20728;-67
2022/07/06 00:16:26;;;;;;;2.03;1.52;;;;;;;;;;5017157;28;20232;-67
2022/07/06 00:18:54;;;;;;;1.85;1.42;;;;;;;;;;5025117;28;20263;-67
2022/07/06 00:21:21;;;;;;;1.90;1.67;;;;;;;;;;5020046;28;20203;-67
2022/07/06 00:23:48;;;;;;;2.40;1.60;;;;;;;;;;5022546;28;20218;-67
2022/07/06 00:26:16;;;;;;;3.20;2.53;;;;;;;;;;5026430;28;20226;-66
2022/07/06 00:28:43;;;;;;;2.37;1.93;;;;;;;;;;5018516;28;20304;-65
2022/07/06 00:31:11;;;;;;;2.10;1.90;;;;;;;;;;5022834;28;20269;-67
2022/07/06 00:33:38;;;;;;;2.10;1.90;;;;;;;;;;5032196;28;20225;-68
2022/07/06 00:36:06;;;;;;;1.70;1.60;;;;;;;;;;5018944;28;20227;-68
2022/07/06 00:38:33;;;;;;;1.97;1.73;;;;;;;;;;5024198;28;20230;-66
2022/07/06 00:41:01;;;;;;;1.63;1.50;;;;;;;;;;5018490;28;20588;-68
2022/07/06 00:43:28;;;;;;;2.60;1.80;;;;;;;;;;5016302;28;20199;-68
2022/07/06 00:45:55;;;;;;;2.40;1.60;;;;;;;;;;5022192;28;20218;-68
2022/07/06 00:48:23;;;;;;;1.70;1.60;;;;;;;;;;5017709;28;20227;-67
2022/07/06 00:50:51;;;;;;;1.90;1.80;;;;;;;;;;5017171;28;20304;-68
2022/07/06 00:53:19;;;;;;;2.00;1.80;;;;;;;;;;5014188;28;20269;-68
2022/07/06 00:55:46;;;;;;;2.40;1.93;;;;;;;;;;5022566;28;20230;-66
2022/07/06 00:58:13;;;;;;;2.73;1.80;;;;;;;;;;5013092;28;20208;-68
2022/07/06 01:00:44;;;;;;;5.87;1.83;;;;;;;;;;5020380;28;20221;-68
2022/07/06 01:03:12;;;;;;;5.53;1.90;;;;;;;;;;5019018;28;20207;-68
2022/07/06 01:05:39;;;;;;;2.20;2.10;;;;;;;;;;5017064;28;20226;-67
2022/07/06 01:08:07;;;;;;;2.20;1.90;;;;;;;;;;5011341;28;20227;-67
2022/07/06 01:10:34;;;;;;;2.43;2.10;;;;;;;;;;5015777;28;20203;-68
2022/07/06 01:13:02;;;;;;;2.00;1.90;;;;;;;;;;5016188;28;20237;-68
2022/07/06 01:15:29;;;;;;;3.53;2.10;;;;;;;;;;5026107;28;20223;-68
2022/07/06 01:17:57;;;;;;;2.70;1.97;;;;;;;;;;5014740;28;20219;-67
2022/07/06 01:20:26;;;;;;;3.63;2.00;;;;;;;;;;5012882;28;20298;-67
2022/07/06 01:22:56;;;;;;;2.83;2.43;;;;;;;;;;5015012;28;20211;-67
2022/07/06 01:25:24;;;;;;;5.50;3.50;;;;;;;;;;5024081;28;20227;-67
2022/07/06 01:27:51;;;;;;;3.73;3.10;;;;;;;;;;5022183;28;20216;-68
2022/07/06 01:30:19;;;;;;;3.77;2.90;;;;;;;;;;5027548;28;20207;-67
2022/07/06 01:32:47;;;;;;;2.60;2.40;;;;;;;;;;5017250;28;20199;-68
2022/07/06 01:35:15;;;;;;;2.67;2.30;;;;;;;;;;5024050;28;20277;-68
2022/07/06 01:37:42;;;;;;;4.70;2.40;;;;;;;;;;5024360;28;20211;-66
2022/07/06 01:40:11;;;;;;;8.87;5.23;;;;;;;;;;5017987;28;20735;-67
2022/07/06 01:42:39;;;;;;;6.90;4.40;;;;;;;;;;5015866;28;20669;-67
2022/07/06 01:45:10;;;;;;;8.87;5.40;;;;;;;;;;5019483;28;20227;-68
2022/07/06 01:47:37;;;;;;;6.70;4.10;;;;;;;;;;5013456;28;20665;-68
2022/07/06 01:50:08;;;;;;;4.13;3.50;;;;;;;;;;5018293;28;20637;-68
2022/07/06 01:52:36;;;;;;;2.67;2.47;;;;;;;;;;5024531;28;20673;-68
2022/07/06 01:55:04;;;;;;;3.03;2.70;;;;;;;;;;5015861;28;20234;-67
2022/07/06 01:57:31;;;;;;;4.47;2.50;;;;;;;;;;5021715;28;20230;-67
2022/07/06 01:59:58;;;;;;;3.30;2.50;;;;;;;;;;5020689;28;20210;-67
2022/07/06 02:02:26;;;;;;;3.93;2.83;;;;;;;;;;5023222;28;20278;-67
2022/07/06 02:04:53;;;;;;;3.93;3.50;;;;;;;;;;5018611;28;20218;-67
2022/07/06 02:07:20;;;;;;;3.67;3.37;;;;;;;;;;5048405;28;20207;-67
2022/07/06 02:09:48;;;;;;;4.73;3.43;;;;;;;;;;5033305;28;20599;-67
2022/07/06 02:12:15;;;;;;;4.63;3.30;;;;;;;;;;5023317;28;20203;-67
2022/07/06 02:14:42;;;;;;;3.37;3.00;;;;;;;;;;5019261;28;20222;-67
2022/07/06 02:17:10;;;;;;;3.40;2.90;;;;;;;;;;5022841;28;20288;-67
2022/07/06 02:19:37;;;;;;;3.10;2.87;;;;;;;;;;5016730;28;20210;-67
2022/07/06 02:22:04;;;;;;;3.13;2.93;;;;;;;;;;5015051;28;20234;-67
2022/07/06 02:24:32;;;;;;;4.83;2.97;;;;;;;;;;5011926;28;20277;-67
2022/07/06 02:26:59;;;;;;;10.60;6.43;;;;;;;;;;5007543;28;20703;-67
2022/07/06 02:29:27;;;;;;;4.57;4.13;;;;;;;;;;5011334;28;20230;-67
2022/07/06 02:31:55;;;;;;;4.50;3.90;;;;;;;;;;5022951;28;20252;-66
2022/07/06 02:34:22;;;;;;;3.77;3.47;;;;;;;;;;5029188;28;20215;-67
2022/07/06 02:36:50;;;;;;;3.07;2.87;;;;;;;;;;5014423;28;20312;-67
2022/07/06 02:39:17;;;;;;;3.43;3.17;;;;;;;;;;5009894;28;20215;-67
2022/07/06 02:41:44;;;;;;;3.47;3.00;;;;;;;;;;5028547;28;20221;-67
2022/07/06 02:44:12;;;;;;;5.17;3.47;;;;;;;;;;5029206;28;20214;-68
2022/07/06 02:46:39;;;;;;;3.63;3.23;;;;;;;;;;5023048;28;20647;-67
2022/07/06 02:49:06;;;;;;;7.20;4.00;;;;;;;;;;5026402;28;20222;-65
2022/07/06 02:51:34;;;;;;;3.97;3.57;;;;;;;;;;5029174;28;20203;-68
2022/07/06 02:54:01;;;;;;;3.30;3.10;;;;;;;;;;5023764;28;20206;-68
2022/07/06 02:56:29;;;;;;;4.33;3.93;;;;;;;;;;5016367;28;20226;-67
2022/07/06 02:58:56;;;;;;;3.63;2.90;;;;;;;;;;5017427;28;20264;-68
2022/07/06 03:01:23;;;;;;;3.17;2.97;;;;;;;;;;5025515;28;21831;-67
2022/07/06 03:03:51;;;;;;;3.57;2.90;;;;;;;;;;5025373;28;20676;-67
2022/07/06 03:06:18;;;;;;;3.70;3.40;;;;;;;;;;5021431;28;20261;-67
2022/07/06 03:08:46;;;;;;;7.43;4.10;;;;;;;;;;5022000;28;20845;-68
2022/07/06 03:11:13;;;;;;;3.63;3.33;;;;;;;;;;5017754;28;20195;-68
2022/07/06 03:13:40;;;;;;;3.50;3.20;;;;;;;;;;5018347;28;20876;-67
2022/07/06 03:16:07;;;;;;;3.30;3.10;;;;;;;;;;5026456;28;20241;-67
2022/07/06 03:18:35;;;;;;;4.93;3.30;;;;;;;;;;5026080;28;20212;-66
2022/07/06 03:21:03;;;;;;;3.80;3.40;;;;;;;;;;5025775;28;20674;-68
2022/07/06 03:23:31;;;;;;;6.07;4.77;;;;;;;;;;5020616;28;20230;-68
2022/07/06 03:25:58;;;;;;;4.57;4.13;;;;;;;;;;5025716;28;20230;-66
2022/07/06 03:28:26;;;;;;;6.40;3.43;;;;;;;;;;5016609;28;20215;-66
2022/07/06 03:30:53;;;;;;;4.50;3.90;;;;;;;;;;5017560;28;20261;-68
2022/07/06 03:33:20;;;;;;;3.67;3.00;;;;;;;;;;5025679;28;20199;-68
2022/07/06 03:35:48;;;;;;;3.83;3.43;;;;;;;;;;5021963;28;20219;-67
2022/07/06 03:38:15;;;;;;;4.17;3.10;;;;;;;;;;5024529;28;20298;-66
2022/07/06 03:40:43;;;;;;;3.53;3.20;;;;;;;;;;5023860;28;20293;-67
2022/07/06 03:43:10;;;;;;;3.97;3.37;;;;;;;;;;5018845;28;20207;-67
2022/07/06 03:45:37;;;;;;;3.53;3.23;;;;;;;;;;5017532;28;20229;-67
2022/07/06 03:48:05;;;;;;;6.40;3.40;;;;;;;;;;5018212;28;20214;-67
2022/07/06 03:50:32;;;;;;;4.37;3.50;;;;;;;;;;5015351;28;20278;-67
2022/07/06 03:52:59;;;;;;;3.67;3.30;;;;;;;;;;5009321;28;20282;-67
2022/07/06 03:55:27;;;;;;;3.43;3.13;;;;;;;;;;5016722;28;20226;-67
2022/07/06 03:57:54;;;;;;;4.43;4.03;;;;;;;;;;5013932;28;20207;-66
2022/07/06 04:00:22;;;;;;;9.87;7.40;;;;;;;;;;5018642;28;20735;-67
2022/07/06 04:02:49;;;;;;;8.97;6.60;;;;;;;;;;5014562;28;20202;-67
2022/07/06 04:05:20;;;;;;;7.10;4.43;;;;;;;;;;5024205;28;20234;-67
2022/07/06 04:07:48;;;;;;;7.83;4.70;;;;;;;;;;5006053;28;20226;-67
2022/07/06 04:10:17;;;;;;;6.00;5.40;;;;;;;;;;5007131;28;20239;-68
2022/07/06 04:12:44;;;;;;;5.40;4.67;;;;;;;;;;5020291;28;20207;-67
2022/07/06 04:15:12;;;;;;;4.30;3.90;;;;;;;;;;5018149;28;20251;-67
2022/07/06 04:17:51;;;;;;;4.40;4.00;;;;;;;;;;5024459;28;20967;-67
2022/07/06 04:20:20;;;;;;;4.27;3.20;;;;;;;;;;5026320;28;20214;-67
2022/07/06 04:22:48;;;;;;;5.47;3.50;;;;;;;;;;5042475;28;20199;-67
2022/07/06 04:25:15;;;;;;;3.47;3.13;;;;;;;;;;5020152;28;20235;-67
2022/07/06 04:27:43;;;;;;;4.63;3.10;;;;;;;;;;5024332;28;20239;-67
2022/07/06 04:30:11;;;;;;;4.57;3.37;;;;;;;;;;5027733;28;20223;-67
2022/07/06 04:32:38;;;;;;;3.50;3.20;;;;;;;;;;5027954;28;20199;-67
2022/07/06 04:35:06;;;;;;;4.60;4.20;;;;;;;;;;5028971;28;20214;-67
2022/07/06 04:37:34;;;;;;;4.47;4.00;;;;;;;;;;5020304;28;20297;-67
2022/07/06 04:40:01;;;;;;;3.60;3.20;;;;;;;;;;5035881;28;20594;-67
2022/07/06 04:42:34;;;;;;;4.03;3.40;;;;;;;;;;5031901;28;20273;-66
2022/07/06 04:45:01;;;;;;;8.30;5.80;;;;;;;;;;5028550;28;20227;-67
2022/07/06 04:47:29;;;;;;;6.40;3.93;;;;;;;;;;5024665;28;20222;-67
2022/07/06 04:49:56;;;;;;;8.83;3.67;;;;;;;;;;5031978;28;20789;-67
2022/07/06 04:52:23;;;;;;;3.60;3.33;;;;;;;;;;5028703;28;20265;-67
2022/07/06 04:54:51;;;;;;;3.70;3.40;;;;;;;;;;5028727;28;20226;-66
2022/07/06 04:57:18;;;;;;;4.60;3.27;;;;;;;;;;5033014;28;20669;-67
2022/07/06 04:59:45;;;;;;;3.80;3.20;;;;;;;;;;5031079;28;20210;-67
2022/07/06 05:02:13;;;;;;;3.20;2.90;;;;;;;;;;5027926;28;22091;-66
2022/07/06 05:04:40;;;;;;;4.47;3.20;;;;;;;;;;5021656;28;20266;-67
2022/07/06 05:07:08;;;;;;;3.50;3.20;;;;;;;;;;5025711;28;20202;-67
2022/07/06 05:09:35;;;;;;;10.03;3.33;;;;;;;;;;5026884;28;20235;-67
2022/07/06 05:12:03;;;;;;;4.37;3.00;;;;;;;;;;5027381;28;20214;-68
2022/07/06 05:14:30;;;;;;;5.20;3.40;;;;;;;;;;5025128;28;20199;-66
2022/07/06 05:16:57;;;;;;;3.43;3.10;;;;;;;;;;5026697;28;20660;-67
2022/07/06 05:19:25;;;;;;;5.90;3.60;;;;;;;;;;5021673;28;20214;-67
2022/07/06 05:21:52;;;;;;;4.93;3.50;;;;;;;;;;5023000;28;20211;-67
2022/07/06 05:24:20;;;;;;;3.70;3.40;;;;;;;;;;5020779;28;20687;-67
2022/07/06 05:26:47;;;;;;;3.73;3.33;;;;;;;;;;5023109;28;20249;-67
2022/07/06 05:29:15;;;;;;;4.60;2.83;;;;;;;;;;5021199;28;20215;-67
2022/07/06 05:31:42;;;;;;;5.13;2.83;;;;;;;;;;5023806;28;21094;-67
2022/07/06 05:34:09;;;;;;;3.97;2.70;;;;;;;;;;5019280;28;20214;-68
2022/07/06 05:36:37;;;;;;;3.88;2.25;;;;;;;;;;5036247;28;20250;-67
2022/07/06 05:39:04;;;;;;;3.35;2.70;;;;;;;;;;5030210;28;20211;-67
2022/07/06 05:41:31;;;;;;;3.47;2.45;;;;;;;;;;5019441;28;20627;-68
2022/07/06 05:44:00;;;;;;;3.53;2.40;;;;;;;;;;5019169;28;20288;-67
2022/07/06 05:46:28;;;;;;;3.85;2.20;;;;;;;;;;5016222;28;20354;-68
2022/07/06 05:51:42;;;;;;;2.38;2.17;;;;;;;;;;5027985;28;20206;-68
2022/07/06 05:54:09;;;;;;;4.60;2.35;;;;;;;;;;5027591;28;20234;-67
2022/07/06 05:56:36;;;;;;;3.75;2.22;;;;;;;;;;5018357;28;20643;-66
2022/07/06 05:59:04;;;;;;;2.85;2.10;;;;;;;;;;5017614;28;20614;-67
2022/07/06 06:01:31;;;;;;;2.50;2.30;;;;;;;;;;5016248;28;20206;-67
2022/07/06 06:04:01;;;;;;;4.45;2.80;;;;;;;;;;5028889;28;20203;-67
2022/07/06 06:06:31;;;;;;;3.08;2.58;;;;;;;;;;5018827;28;20237;-66
2022/07/06 06:08:58;;;;;;;3.13;2.17;;;;;;;;;;5025418;28;20712;-67
2022/07/06 06:11:26;;;;;;;2.40;2.20;;;;;;;;;;5027571;28;20207;-67
2022/07/06 06:13:53;;;;;;;4.07;2.75;;;;;;;;;;5032829;28;20245;-67
2022/07/06 06:16:20;;;;;;;4.03;2.35;;;;;;;;;;5024582;28;20223;-67
2022/07/06 06:18:48;;;;;;;3.15;2.42;;;;;;;;;;5024075;28;20587;-66
2022/07/06 06:21:15;;;;;;;2.80;2.35;;;;;;;;;;5024481;28;20211;-68
2022/07/06 06:23:43;;;;;;;2.92;2.22;;;;;;;;;;5007655;28;20214;-68
2022/07/06 06:26:11;;;;;;;4.72;2.70;;;;;;;;;;5013852;28;20231;-67
2022/07/06 06:28:38;;;;;;;4.75;2.72;;;;;;;;;;5021421;28;20214;-67
2022/07/06 06:31:06;;;;;;;5.00;2.95;;;;;;;;;;5021325;28;20250;-67
2022/07/06 06:33:33;;;;;;;4.38;3.20;;;;;;;;;;5013131;28;20738;-67
2022/07/06 06:36:01;;;;;;;6.10;3.15;;;;;;;;;;5017354;28;20215;-67
2022/07/06 06:38:29;;;;;;;4.75;3.10;;;;;;;;;;5017084;28;20215;-67
2022/07/06 06:40:57;;;;;;;3.45;3.15;;;;;;;;;;5011871;28;20293;-66
2022/07/06 06:43:25;;;;;;;6.55;3.15;;;;;;;;;;5016461;28;20704;-66
2022/07/06 06:45:52;;;;;;;3.60;3.22;;;;;;;;;;5021070;28;20230;-68
2022/07/06 06:48:20;;;;;;;3.72;3.25;;;;;;;;;;5014817;28;20252;-66
2022/07/06 06:50:47;;;;;;;4.32;3.70;;;;;;;;;;5014226;28;20231;-66
2022/07/06 06:53:15;;;;;;;4.82;4.32;;;;;;;;;;5016075;28;20215;-65
2022/07/06 06:55:42;;;;;;;6.50;3.83;;;;;;;;;;5021450;28;20238;-67
2022/07/06 06:58:10;;;;;;;8.63;4.57;;;;;;;;;;5009099;28;20555;-70
2022/07/06 07:00:37;;;;;;;3.35;2.95;;;;;;;;;;5008237;28;20853;-69
2022/07/06 07:03:05;;;;;;;4.00;3.60;;;;;;;;;;5005425;28;20310;-66
2022/07/06 07:05:33;;;;;;;7.47;3.67;;;;;;;;;;5010626;28;21225;-68
2022/07/06 07:08:01;;;;;;;3.65;3.35;;;;;;;;;;5008684;28;20202;-67
2022/07/06 07:10:31;;;;;;;4.78;3.95;;;;;;;;;;5018898;28;20243;-66
2022/07/06 07:12:59;;;;;;;5.55;3.50;;;;;;;;;;5017268;28;20211;-66
2022/07/06 07:15:26;;;;;;;5.18;3.30;;;;;;;;;;5003879;28;20276;-66
2022/07/06 07:17:54;;;;;;;4.13;3.35;;;;;;;;;;5003710;28;20306;-66
2022/07/06 07:20:21;;;;;;;4.82;3.30;;;;;;;;;;5009121;28;20243;-66
2022/07/06 07:22:49;;;;;;;4.00;3.60;;;;;;;;;;5020982;28;20237;-68
2022/07/06 07:25:16;;;;;;;4.68;3.83;;;;;;;;;;5012560;28;20224;-68
2022/07/06 07:27:44;;;;;;;3.67;3.38;;;;;;;;;;5003776;28;20221;-67
2022/07/06 07:30:11;;;;;;;3.60;3.30;;;;;;;;;;5005833;28;20223;-66
2022/07/06 07:32:41;;;;;;;5.15;4.47;;;;;;;;;;5006949;28;20260;-68
2022/07/06 07:35:09;;;;;;;7.63;6.10;;;;;;;;;;5009520;28;20246;-68
2022/07/06 07:37:37;;;;;;;5.80;4.68;;;;;;;;;;5010889;28;20261;-67
2022/07/06 07:40:05;;;;;;;4.20;3.50;;;;;;;;;;5014348;28;20222;-68
2022/07/06 07:42:33;;;;;;;7.00;4.82;;;;;;;;;;5014595;28;20254;-68
2022/07/06 07:45:00;;;;;;;5.78;3.72;;;;;;;;;;5007168;28;20239;-67
2022/07/06 07:47:27;;;;;;;4.22;3.50;;;;;;;;;;5030857;28;20221;-66
2022/07/06 07:49:55;;;;;;;3.53;3.20;;;;;;;;;;4998723;28;20664;-67
2022/07/06 07:52:22;;;;;;;4.00;3.45;;;;;;;;;;5008535;28;20203;-67
2022/07/06 07:54:49;;;;;;;3.53;3.33;;;;;;;;;;5021605;28;20218;-67
2022/07/06 07:57:37;;;;;;;5.90;5.35;;;;;;;;;;5010233;28;20542;-67
2022/07/06 08:00:05;;;;;;;3.65;3.33;;;;;;;;;;5016261;28;20215;-68
2022/07/06 08:02:32;;;;;;;3.63;3.33;;;;;;;;;;5012682;28;20218;-68
2022/07/06 08:05:00;;;;;;;5.75;3.53;;;;;;;;;;5030994;28;20235;-67
2022/07/06 08:07:27;;;;;;;3.40;3.15;;;;;;;;;;5015487;28;20216;-68
2022/07/06 08:09:54;;;;;;;4.53;3.38;;;;;;;;;;5014981;28;20238;-68
2022/07/06 08:12:22;;;;;;;4.68;3.47;;;;;;;;;;5018117;28;20593;-67
2022/07/06 08:14:49;;;;;;;4.10;3.40;;;;;;;;;;5023841;28;20231;-67
2022/07/06 08:17:17;;;;;;;4.20;3.17;;;;;;;;;;5007519;28;20886;-67
2022/07/06 08:19:44;;;;;;;3.67;3.38;;;;;;;;;;5013093;28;20211;-68
2022/07/06 08:22:11;;;;;;;3.10;2.90;;;;;;;;;;5017201;28;20313;-67
2022/07/06 08:24:39;;;;;;;3.45;3.25;;;;;;;;;;5025419;28;20234;-68
2022/07/06 08:27:06;;;;;;;6.18;3.97;;;;;;;;;;5026912;28;20215;-67
2022/07/06 08:29:34;;;;;;;4.03;3.20;;;;;;;;;;5016036;28;20211;-67
2022/07/06 08:32:01;;;;;;;5.22;3.20;;;;;;;;;;5017785;28;20613;-68
2022/07/06 08:34:40;;;;;;;3.67;3.33;;;;;;;;;;5017387;28;20222;-67
2022/07/06 08:37:07;;;;;;;3.13;2.83;;;;;;;;;;5016370;28;20242;-67
2022/07/06 08:39:35;;;;;;;5.32;3.13;;;;;;;;;;5022837;28;20811;-68
2022/07/06 08:42:03;;;;;;;3.63;3.30;;;;;;;;;;5014411;28;20202;-68
2022/07/06 08:44:30;;;;;;;3.47;3.03;;;;;;;;;;5016478;28;20199;-68
2022/07/06 08:46:58;;;;;;;3.55;2.95;;;;;;;;;;5015331;28;20605;-68
2022/07/06 08:49:26;;;;;;;3.10;2.80;;;;;;;;;;5025587;28;20218;-67
2022/07/06 08:51:54;;;;;;;2.92;2.70;;;;;;;;;;5021039;28;20222;-68
2022/07/06 08:54:22;;;;;;;3.47;2.85;;;;;;;;;;5016730;28;20672;-68
2022/07/06 08:56:50;;;;;;;3.42;2.55;;;;;;;;;;5010928;28;20206;-68
2022/07/06 08:59:18;;;;;;;5.47;3.13;;;;;;;;;;5017904;28;20237;-69
2022/07/06 09:01:47;;;;;;;3.38;3.08;;;;;;;;;;5023145;28;20234;-68
2022/07/06 09:04:18;;;;;;;3.60;2.42;;;;;;;;;;5016979;28;20900;-69
2022/07/06 09:06:47;;;;;;;3.38;3.08;;;;;;;;;;5010369;28;20348;-68
2022/07/06 09:09:20;;;;;;;4.03;2.78;;;;;;;;;;5015389;28;20210;-68
2022/07/06 09:11:48;;;;;;;3.33;2.80;;;;;;;;;;5016966;28;20302;-68
2022/07/06 09:14:15;;;;;;;3.88;2.58;;;;;;;;;;5016511;28;20281;-70
2022/07/06 09:16:43;;;;;;;3.78;2.33;;;;;;;;;;5021130;28;20206;-69
2022/07/06 09:19:12;;;;;;;2.65;2.45;;;;;;;;;;5016235;28;20218;-70
2022/07/06 09:21:41;;;;;;;2.83;2.45;;;;;;;;;;5019134;28;20211;-70
2022/07/06 09:24:10;;;;;;;3.75;2.20;;;;;;;;;;5022603;28;20882;-68
2022/07/06 09:26:37;;;;;;;2.92;2.10;;;;;;;;;;5010428;28;20226;-69
2022/07/06 09:29:06;;;;;;;4.13;2.20;;;;;;;;;;5018856;28;20811;-70
2022/07/06 09:31:33;;;;;;;3.00;2.20;;;;;;;;;;5014523;28;20230;-69
2022/07/06 09:34:02;;;;;;;2.53;2.33;;;;;;;;;;5001024;28;20200;-67
2022/07/06 09:36:40;;;;;;;3.13;2.50;;;;;;;;;;5009527;28;20227;-68
2022/07/06 09:39:21;;;;;;;3.35;2.20;;;;;;;;;;5017792;28;21953;-69
2022/07/06 09:41:49;;;;;;;2.38;2.17;;;;;;;;;;5019648;28;20253;-70
2022/07/06 09:44:22;;;;;;;3.42;2.45;;;;;;;;;;5015608;28;20325;-68
2022/07/06 09:46:49;;;;;;;2.33;2.20;;;;;;;;;;5020457;28;20219;-69
2022/07/06 09:49:20;;;;;;;2.67;2.13;;;;;;;;;;5013708;28;20261;-68
2022/07/06 09:51:49;;;;;;;2.17;2.08;;;;;;;;;;5013408;28;20276;-67
2022/07/06 09:54:17;;;;;;;2.10;2.00;;;;;;;;;;5013170;28;20204;-68
2022/07/06 09:56:52;;;;;;;2.72;2.33;;;;;;;;;;5013508;28;20203;-67
2022/07/06 09:59:21;;;;;;;2.88;2.60;;;;;;;;;;5015544;28;20582;-67
2022/07/06 10:01:51;;;;;;;2.30;2.17;;;;;;;;;;5013030;28;20234;-69
2022/07/06 10:04:20;;;;;;;3.45;2.03;;;;;;;;;;5015130;28;20213;-71
2022/07/06 10:06:48;;;;;;;3.83;2.47;;;;;;;;;;5019179;28;20693;-68
2022/07/06 10:09:16;;;;;;;3.30;2.25;;;;;;;;;;5024259;28;20218;-68
2022/07/06 10:11:54;;;;;;;4.13;3.33;;;;;;;;;;5027446;28;20241;-68
2022/07/06 10:14:27;;;;;;;2.85;2.08;;;;;;;;;;5019399;28;20253;-68
2022/07/06 10:16:59;;;;;;;2.88;2.30;;;;;;;;;;5010000;28;20301;-69
2022/07/06 10:19:27;;;;;;;3.95;2.42;;;;;;;;;;5014150;28;20214;-69
2022/07/06 10:21:57;;;;;;;4.53;2.50;;;;;;;;;;5010842;28;20269;-67
2022/07/06 10:24:25;;;;;;;4.72;2.33;;;;;;;;;;5002305;28;20211;-67
2022/07/06 10:26:53;;;;;;;2.70;2.20;;;;;;;;;;5010405;28;20210;-68
2022/07/06 10:29:21;;;;;;;3.92;3.30;;;;;;;;;;5015095;28;20211;-69
2022/07/06 10:31:51;;;;;;;4.70;3.00;;;;;;;;;;5000199;28;20257;-68
2022/07/06 10:34:19;;;;;;;3.17;2.20;;;;;;;;;;5009482;28;20214;-68
2022/07/06 10:36:54;;;;;;;3.67;2.30;;;;;;;;;;5015260;28;21427;-68
2022/07/06 10:42:43;;;;;;;4.57;2.10;;;;;;;;;;5009253;28;23534;-67
2022/07/06 10:45:12;;;;;;;6.60;2.45;;;;;;;;;;5019986;28;20321;-68
2022/07/06 10:47:41;;;;;;;2.40;2.20;;;;;;;;;;5011191;28;20226;-68
2022/07/06 10:50:08;;;;;;;2.53;2.25;;;;;;;;;;5008048;28;20207;-68
2022/07/06 10:52:49;;;;;;;4.88;2.30;;;;;;;;;;5015008;28;20217;-68
2022/07/06 10:55:40;;;;;;;2.70;2.08;;;;;;;;;;5010838;28;20227;-68
2022/07/06 10:58:07;;;;;;;3.78;2.00;;;;;;;;;;5006103;28;20208;-68
2022/07/06 11:00:55;;;;;;;4.13;1.70;;;;;;;;;;5010830;28;20298;-69
2022/07/06 11:03:36;;;;;;;2.42;1.80;;;;;;;;;;5012569;28;20219;-68
2022/07/06 11:06:07;;;;;;;2.90;2.08;;;;;;;;;;5018954;28;20231;-68
2022/07/06 11:08:55;;;;;;;2.78;2.00;;;;;;;;;;5017028;28;20214;-68
2022/07/06 11:11:32;;;;;;;2.60;1.80;;;;;;;;;;5014603;28;20625;-71
2022/07/06 11:14:04;;;;;;;2.47;2.17;;;;;;;;;;5023323;28;20214;-67
2022/07/06 11:16:36;;;;;;;3.50;2.35;;;;;;;;;;5025576;28;20226;-68
2022/07/06 11:19:09;;;;;;;3.58;2.20;;;;;;;;;;5018172;28;20570;-68
2022/07/06 11:21:59;;;;;;;2.70;1.50;;;;;;;;;;5026895;28;20203;-69
2022/07/06 11:24:31;;;;;;;3.25;1.88;;;;;;;;;;5016267;28;20211;-69
2022/07/06 11:26:59;;;;;;;2.70;2.08;;;;;;;;;;5019110;28;20207;-68
2022/07/06 11:29:28;;;;;;;3.05;1.92;;;;;;;;;;5006257;28;20320;-69
2022/07/06 11:31:58;;;;;;;3.08;1.80;;;;;;;;;;5021103;28;20226;-68
2022/07/06 11:34:26;;;;;;;2.13;1.95;;;;;;;;;;5019138;28;20218;-69
2022/07/06 11:36:58;;;;;;;2.10;1.90;;;;;;;;;;5015618;28;20215;-68
2022/07/06 11:39:32;;;;;;;2.08;1.88;;;;;;;;;;5023141;28;20211;-68
2022/07/06 11:42:00;;;;;;;2.25;1.75;;;;;;;;;;5020279;28;20206;-67
2022/07/06 11:44:28;;;;;;;2.15;1.95;;;;;;;;;;5022425;28;20776;-67
2022/07/06 11:47:02;;;;;;;3.50;1.80;;;;;;;;;;5020121;28;20304;-68
2022/07/06 11:49:30;;;;;;;6.97;2.10;;;;;;;;;;5036250;28;20214;-68
2022/07/06 11:51:57;;;;;;;2.75;1.75;;;;;;;;;;5015787;28;20222;-68
2022/07/06 11:54:25;;;;;;;2.30;2.10;;;;;;;;;;5023756;28;20210;-69
2022/07/06 11:56:54;;;;;;;3.50;2.30;;;;;;;;;;5025457;28;20199;-69
2022/07/06 11:59:23;;;;;;;5.63;3.20;;;;;;;;;;5028838;28;20210;-69
2022/07/06 12:01:57;;;;;;;5.13;2.88;;;;;;;;;;5019256;28;20207;-68
2022/07/06 12:04:25;;;;;;;4.03;2.70;;;;;;;;;;5019905;28;20263;-68
2022/07/06 12:06:53;;;;;;;2.35;2.15;;;;;;;;;;5018482;28;20216;-68
2022/07/06 12:09:21;;;;;;;4.72;3.45;;;;;;;;;;5022519;28;20207;-67
2022/07/06 12:11:49;;;;;;;1.80;1.70;;;;;;;;;;5020584;28;20230;-68
2022/07/06 12:14:20;;;;;;;5.97;2.05;;;;;;;;;;5023718;28;20203;-68
2022/07/06 12:16:51;;;;;;;3.63;2.33;;;;;;;;;;5034478;28;20203;-67
2022/07/06 12:19:22;;;;;;;1.90;1.60;;;;;;;;;;5021810;28;20306;-68
2022/07/06 12:21:50;;;;;;;2.58;1.73;;;;;;;;;;5026999;28;20210;-68
2022/07/06 12:24:19;;;;;;;2.10;1.90;;;;;;;;;;5024761;28;20214;-67
2022/07/06 12:26:46;;;;;;;3.47;1.95;;;;;;;;;;5029902;28;20214;-68
2022/07/06 12:29:14;;;;;;;3.17;1.92;;;;;;;;;;5028126;28;20206;-69
2022/07/06 12:31:43;;;;;;;4.90;2.13;;;;;;;;;;5028663;28;20719;-69
2022/07/06 12:34:15;;;;;;;3.70;1.80;;;;;;;;;;5024135;28;20531;-67
2022/07/06 12:36:44;;;;;;;2.45;1.90;;;;;;;;;;5024878;28;20594;-68
2022/07/06 12:39:13;;;;;;;1.85;1.60;;;;;;;;;;5033328;28;20270;-67
2022/07/06 12:41:45;;;;;;;2.10;1.90;;;;;;;;;;5030566;28;20211;-68
2022/07/06 12:44:13;;;;;;;2.22;1.80;;;;;;;;;;5021441;28;20665;-68
2022/07/06 12:46:41;;;;;;;2.40;1.80;;;;;;;;;;5011780;28;20734;-68
2022/07/06 12:49:13;;;;;;;2.88;2.20;;;;;;;;;;5016072;28;20211;-68
2022/07/06 12:52:07;;;;;;;6.53;3.67;;;;;;;;;;5011483;28;20231;-68
2022/07/06 12:54:36;;;;;;;2.38;1.98;;;;;;;;;;5017410;28;20256;-68
2022/07/06 12:57:12;;;;;;;2.92;1.92;;;;;;;;;;5021798;28;20715;-68
2022/07/06 12:59:42;;;;;;;3.78;1.95;;;;;;;;;;5017359;28;20206;-70
2022/07/06 13:02:17;;;;;;;2.65;2.00;;;;;;;;;;5009052;28;20221;-69
2022/07/06 13:04:54;;;;;;;3.33;2.17;;;;;;;;;;5014295;28;20636;-69
2022/07/06 13:07:22;;;;;;;2.17;1.90;;;;;;;;;;5016397;28;20199;-68
2022/07/06 13:09:49;;;;;;;3.40;2.30;;;;;;;;;;5021726;28;20660;-69
2022/07/06 13:12:17;;;;;;;3.50;2.15;;;;;;;;;;5024098;28;20226;-68
2022/07/06 13:14:44;;;;;;;4.50;2.20;;;;;;;;;;5013023;28;20292;-67
2022/07/06 13:17:11;;;;;;;5.72;2.00;;;;;;;;;;5025982;28;20199;-70
2022/07/06 13:19:39;;;;;;;5.47;2.80;;;;;;;;;;5024176;28;20210;-68
2022/07/06 13:22:07;;;;;;;4.22;2.10;;;;;;;;;;5025438;28;20210;-70
2022/07/06 13:24:34;;;;;;;2.30;2.10;;;;;;;;;;5021086;28;20202;-69
2022/07/06 13:27:05;;;;;;;6.00;2.35;;;;;;;;;;5022555;28;20264;-69
2022/07/06 13:29:33;;;;;;;3.17;2.17;;;;;;;;;;5015084;28;20286;-69
2022/07/06 13:32:01;;;;;;;4.00;2.45;;;;;;;;;;5015973;28;20234;-68
2022/07/06 13:34:28;;;;;;;4.07;1.98;;;;;;;;;;5025647;28;20211;-68
2022/07/06 13:36:55;;;;;;;2.90;2.00;;;;;;;;;;5029924;28;20214;-68
2022/07/06 13:39:23;;;;;;;3.65;2.30;;;;;;;;;;5016505;28;20219;-67
2022/07/06 13:41:50;;;;;;;2.30;2.10;;;;;;;;;;5012135;28;20207;-68
2022/07/06 13:44:18;;;;;;;5.25;2.30;;;;;;;;;;5015299;28;20215;-68
2022/07/06 13:46:46;;;;;;;4.25;2.55;;;;;;;;;;5017495;28;20214;-68
2022/07/06 13:49:14;;;;;;;2.55;2.25;;;;;;;;;;5014087;28;20215;-69
2022/07/06 13:51:41;;;;;;;2.38;2.20;;;;;;;;;;5019839;28;20224;-68
2022/07/06 13:54:09;;;;;;;2.33;2.10;;;;;;;;;;5024452;28;20207;-67
2022/07/06 13:56:37;;;;;;;4.57;2.42;;;;;;;;;;5022710;28;20235;-69
2022/07/06 13:59:05;;;;;;;3.53;2.50;;;;;;;;;;5009536;28;20199;-68
2022/07/06 14:01:32;;;;;;;2.72;2.30;;;;;;;;;;5005973;28;20212;-68
2022/07/06 14:04:00;;;;;;;2.97;2.33;;;;;;;;;;5012649;28;20752;-68
2022/07/06 14:06:27;;;;;;;4.05;2.78;;;;;;;;;;5009527;28;20238;-68
2022/07/06 14:08:54;;;;;;;4.72;2.50;;;;;;;;;;5019727;28;20237;-68
2022/07/06 14:11:22;;;;;;;3.58;2.75;;;;;;;;;;5019753;28;20284;-67
2022/07/06 14:13:49;;;;;;;2.90;2.45;;;;;;;;;;5012446;28;20206;-69
2022/07/06 14:16:17;;;;;;;7.15;2.80;;;;;;;;;;5013100;28;20713;-69
2022/07/06 14:18:44;;;;;;;4.85;2.70;;;;;;;;;;5019458;28;20210;-69
2022/07/06 14:21:11;;;;;;;3.97;2.67;;;;;;;;;;5009950;28;20325;-69
2022/07/06 14:23:39;;;;;;;3.03;2.72;;;;;;;;;;5011502;28;20227;-68
2022/07/06 14:26:06;;;;;;;2.40;2.28;;;;;;;;;;5022460;28;20365;-67
2022/07/06 14:28:34;;;;;;;2.88;2.50;;;;;;;;;;5019727;28;20229;-68
2022/07/06 14:31:02;;;;;;;4.13;2.67;;;;;;;;;;5017642;28;20203;-67
2022/07/06 14:33:30;;;;;;;3.08;2.78;;;;;;;;;;5019638;28;20217;-67
2022/07/06 14:35:57;;;;;;;4.70;2.50;;;;;;;;;;5021557;28;20279;-69
2022/07/06 14:38:24;;;;;;;3.28;2.40;;;;;;;;;;5021048;28;20691;-68
2022/07/06 14:40:52;;;;;;;5.95;2.80;;;;;;;;;;5022529;28;20269;-67
2022/07/06 14:43:19;;;;;;;3.88;2.60;;;;;;;;;;5019479;28;20219;-67
2022/07/06 14:45:47;;;;;;;3.30;2.60;;;;;;;;;;5012936;28;20711;-68
2022/07/06 14:48:16;;;;;;;3.03;2.70;;;;;;;;;;5012046;28;20215;-67
2022/07/06 14:50:43;;;;;;;5.32;3.20;;;;;;;;;;5012871;28;20211;-67
2022/07/06 14:53:10;;;;;;;3.83;2.60;;;;;;;;;;5009904;28;20317;-66
2022/07/06 14:55:38;;;;;;;6.40;3.30;;;;;;;;;;5019964;28;20606;-66
2022/07/06 14:58:06;;;;;;;4.95;4.05;;;;;;;;;;5015976;28;20211;-66